Time;durP1;ratioP1;P1;durP2;ratioP2;P2;SDS_P1;SDS_P2;PMS_P1;PMS_P2;Temp;Humidity;BMP_temperature;BMP_pressure;BME280_temperature;BME280_humidity;BME280_pressure;Samples;Min_cycle;Max_cycle;Signal;HPM_P1;HPM_P2
2022/12/03 00:02:20;;;;;;;30.15;13.68;;;3.50;99.90;;;;;;5022746;28;20078;-88
2022/12/03 00:04:45;;;;;;;25.52;12.23;;;3.50;99.90;;;;;;5040978;28;20211;-88
2022/12/03 00:07:11;;;;;;;27.10;13.38;;;3.50;99.90;;;;;;5031733;28;20182;-87
2022/12/03 00:09:37;;;;;;;23.90;12.73;;;3.60;99.90;;;;;;5031788;28;20032;-89
2022/12/03 00:12:07;;;;;;;26.73;12.80;;;3.70;99.90;;;;;;5045160;28;20230;-88
2022/12/03 00:14:32;;;;;;;26.83;12.25;;;3.70;99.90;;;;;;5042740;28;20136;-88
2022/12/03 00:16:58;;;;;;;27.88;11.60;;;3.70;99.90;;;;;;5049206;28;20124;-88
2022/12/03 00:19:24;;;;;;;21.05;10.82;;;3.80;99.90;;;;;;5024943;28;20041;-87
2022/12/03 00:21:49;;;;;;;22.67;11.32;;;3.90;99.90;;;;;;5044372;28;20202;-88
2022/12/03 00:24:15;;;;;;;23.25;11.25;;;4.00;99.90;;;;;;5030977;28;20514;-87
2022/12/03 00:26:41;;;;;;;22.00;11.50;;;4.00;99.90;;;;;;5024641;28;20051;-89
2022/12/03 00:29:06;;;;;;;21.58;10.80;;;4.10;99.90;;;;;;5029651;28;20047;-88
2022/12/03 00:31:32;;;;;;;18.60;11.05;;;4.10;99.90;;;;;;5028468;28;20060;-88
2022/12/03 00:33:58;;;;;;;20.42;10.68;;;4.20;99.90;;;;;;5026309;28;20041;-88
2022/12/03 00:36:23;;;;;;;22.25;11.52;;;4.20;99.90;;;;;;5034206;28;20051;-88
2022/12/03 00:38:49;;;;;;;23.00;11.82;;;4.20;99.90;;;;;;5033851;28;20043;-88
2022/12/03 00:41:15;;;;;;;22.38;11.50;;;4.20;99.90;;;;;;5020871;28;20514;-88
2022/12/03 00:43:40;;;;;;;19.90;10.30;;;4.30;99.90;;;;;;5019058;28;20051;-89
2022/12/03 00:46:06;;;;;;;20.20;10.95;;;4.20;99.90;;;;;;5020502;28;20041;-88
2022/12/03 00:48:32;;;;;;;21.27;10.93;;;4.20;99.90;;;;;;5021892;28;20036;-88
2022/12/03 00:50:57;;;;;;;19.77;10.57;;;4.20;99.90;;;;;;5020232;28;20033;-88
2022/12/03 00:53:26;;;;;;;19.70;11.38;;;4.10;99.90;;;;;;5020670;28;20147;-89
2022/12/03 00:55:51;;;;;;;19.55;11.15;;;4.10;99.90;;;;;;5016686;28;20032;-88
2022/12/03 00:58:17;;;;;;;18.25;10.10;;;4.10;99.90;;;;;;5016573;28;20383;-87
2022/12/03 01:00:43;;;;;;;19.55;11.02;;;4.10;99.90;;;;;;5023401;28;20476;-88
2022/12/03 01:03:09;;;;;;;20.45;11.52;;;4.10;99.90;;;;;;5016676;28;20041;-88
2022/12/03 01:05:34;;;;;;;19.27;11.55;;;4.00;99.90;;;;;;5027082;28;20052;-89
2022/12/03 01:08:00;;;;;;;19.40;11.35;;;4.00;99.90;;;;;;5034111;28;20056;-88
2022/12/03 01:10:26;;;;;;;20.95;11.23;;;4.00;99.90;;;;;;5019635;28;20044;-89
2022/12/03 01:12:55;;;;;;;21.05;11.35;;;4.00;99.90;;;;;;5021080;28;20134;-89
2022/12/03 01:15:20;;;;;;;20.27;11.50;;;4.00;99.90;;;;;;5041318;28;20052;-88
2022/12/03 01:17:46;;;;;;;19.95;11.40;;;4.00;99.90;;;;;;5019518;28;20040;-88
2022/12/03 01:20:12;;;;;;;21.40;11.70;;;4.00;99.90;;;;;;5023384;28;20059;-88
2022/12/03 01:22:38;;;;;;;19.83;11.15;;;3.90;99.90;;;;;;5021002;28;20044;-88
2022/12/03 01:25:07;;;;;;;22.63;11.73;;;3.90;99.90;;;;;;5022669;28;20054;-87
2022/12/03 01:27:33;;;;;;;20.80;11.63;;;3.90;99.90;;;;;;5026678;28;20076;-88
2022/12/03 01:29:58;;;;;;;22.13;11.82;;;4.00;99.90;;;;;;5025194;28;20123;-87
2022/12/03 01:32:24;;;;;;;19.77;11.27;;;4.00;99.90;;;;;;5037694;28;20044;-89
2022/12/03 01:34:54;;;;;;;20.75;10.93;;;3.90;99.90;;;;;;5021246;28;20123;-88
2022/12/03 01:37:22;;;;;;;20.75;11.70;;;3.90;99.90;;;;;;5023155;28;20040;-88
2022/12/03 01:39:48;;;;;;;20.30;13.00;;;4.00;99.90;;;;;;5026239;28;20037;-88
2022/12/03 01:42:39;;;;;;;20.13;11.68;;;4.00;99.90;;;;;;5019259;28;20095;-88
2022/12/03 01:45:20;;;;;;;23.00;12.20;;;4.00;99.90;;;;;;5019115;28;20375;-88
2022/12/03 01:47:46;;;;;;;23.15;12.15;;;4.00;99.90;;;;;;5035057;28;20028;-88
2022/12/03 01:50:21;;;;;;;23.85;12.05;;;3.90;99.90;;;;;;5018696;28;20041;-87
2022/12/03 01:52:47;;;;;;;19.13;10.82;;;4.00;99.90;;;;;;5020746;28;20043;-88
2022/12/03 01:55:17;;;;;;;22.48;12.48;;;3.90;99.90;;;;;;5020695;28;20041;-88
2022/12/03 01:57:46;;;;;;;20.88;11.82;;;3.90;99.90;;;;;;5037786;28;20053;-88
2022/12/03 02:00:18;;;;;;;23.80;12.45;;;3.90;99.90;;;;;;5035253;28;20052;-88
2022/12/03 02:02:50;;;;;;;20.10;11.57;;;3.90;99.90;;;;;;5034972;28;20428;-89
2022/12/03 02:05:27;;;;;;;20.25;10.85;;;3.90;99.90;;;;;;5023992;28;20048;-88
2022/12/03 02:07:53;;;;;;;21.90;11.30;;;3.90;99.90;;;;;;5039181;28;20041;-89
2022/12/03 02:10:25;;;;;;;21.75;11.27;;;3.90;99.90;;;;;;5020220;28;20047;-88
2022/12/03 02:12:59;;;;;;;20.70;11.27;;;3.90;99.90;;;;;;5023210;28;20243;-89
2022/12/03 02:15:25;;;;;;;19.52;11.65;;;3.90;99.90;;;;;;5024529;28;20047;-88
2022/12/03 02:17:52;;;;;;;19.48;11.60;;;3.90;99.90;;;;;;5022663;28;20033;-88
2022/12/03 02:20:21;;;;;;;20.73;12.00;;;3.90;99.90;;;;;;5036962;28;20036;-89
2022/12/03 02:22:49;;;;;;;22.60;12.18;;;3.90;99.90;;;;;;5019714;28;20049;-88
2022/12/03 02:25:28;;;;;;;20.30;11.93;;;3.90;99.90;;;;;;5017375;28;20044;-88
2022/12/03 02:27:55;;;;;;;22.65;11.82;;;3.90;99.90;;;;;;5019410;28;20029;-88
2022/12/03 02:30:23;;;;;;;22.52;12.23;;;3.80;99.90;;;;;;5022080;28;20488;-88
2022/12/03 02:32:51;;;;;;;22.15;12.02;;;3.80;99.90;;;;;;5036337;28;20392;-87
2022/12/03 02:35:20;;;;;;;23.27;12.32;;;3.90;99.90;;;;;;5039332;28;20097;-88
2022/12/03 02:37:50;;;;;;;20.15;11.77;;;3.80;99.90;;;;;;5037260;28;20073;-87
2022/12/03 02:40:24;;;;;;;22.92;12.25;;;3.80;99.90;;;;;;5040388;28;20041;-88
2022/12/03 02:42:54;;;;;;;23.88;12.63;;;3.80;99.90;;;;;;5017412;28;20528;-89
2022/12/03 02:45:29;;;;;;;22.85;12.90;;;3.80;99.90;;;;;;5040833;28;20180;-87
2022/12/03 02:48:05;;;;;;;22.17;11.77;;;3.80;99.90;;;;;;5017615;28;20120;-88
2022/12/03 02:50:40;;;;;;;22.75;12.32;;;3.80;99.90;;;;;;5017633;28;20045;-89
2022/12/03 02:53:10;;;;;;;23.67;12.85;;;3.80;99.90;;;;;;5019906;28;20308;-89
2022/12/03 02:55:36;;;;;;;22.33;12.15;;;3.70;99.90;;;;;;5016284;28;20384;-88
2022/12/03 02:58:03;;;;;;;22.13;12.43;;;3.70;99.90;;;;;;5020769;28;20040;-88
2022/12/03 03:00:29;;;;;;;21.55;12.02;;;3.70;99.90;;;;;;5018682;28;20056;-87
2022/12/03 03:02:55;;;;;;;25.00;12.20;;;3.70;99.90;;;;;;5021066;28;20448;-88
2022/12/03 03:05:22;;;;;;;23.17;13.32;;;3.70;99.90;;;;;;5021679;28;20395;-88
2022/12/03 03:07:50;;;;;;;23.00;12.32;;;3.80;99.90;;;;;;5036471;28;20434;-88
2022/12/03 03:10:18;;;;;;;23.67;13.63;;;3.80;99.90;;;;;;5019785;28;20196;-88
2022/12/03 03:12:45;;;;;;;22.33;13.02;;;3.70;99.90;;;;;;5034773;28;20299;-88
2022/12/03 03:15:11;;;;;;;23.13;12.70;;;3.70;99.90;;;;;;5021139;28;20040;-88
2022/12/03 03:17:38;;;;;;;23.38;12.93;;;3.70;99.90;;;;;;5018084;28;20047;-88
2022/12/03 03:20:06;;;;;;;20.92;11.52;;;3.70;99.90;;;;;;5021318;28;20182;-88
2022/12/03 03:22:33;;;;;;;21.17;11.93;;;3.70;99.90;;;;;;5018998;28;20347;-89
2022/12/03 03:24:59;;;;;;;22.90;13.20;;;3.70;99.90;;;;;;5014971;28;20056;-87
2022/12/03 03:27:25;;;;;;;23.15;12.95;;;3.70;99.90;;;;;;5033703;28;20041;-88
2022/12/03 03:29:51;;;;;;;19.35;12.30;;;3.70;99.90;;;;;;5020539;28;20033;-87
2022/12/03 03:32:17;;;;;;;22.38;12.00;;;3.80;99.90;;;;;;5017854;28;20044;-88
2022/12/03 03:34:42;;;;;;;23.23;11.90;;;3.70;99.90;;;;;;5035430;28;20045;-89
2022/12/03 03:37:08;;;;;;;23.05;11.95;;;3.80;99.90;;;;;;5035366;28;20504;-88
2022/12/03 03:39:39;;;;;;;21.10;12.25;;;3.70;99.90;;;;;;5021900;28;20150;-88
2022/12/03 03:42:05;;;;;;;23.23;12.88;;;3.70;99.90;;;;;;5034534;28;20036;-87
2022/12/03 03:44:34;;;;;;;23.02;12.30;;;3.80;99.90;;;;;;5018787;28;20056;-90
2022/12/03 03:47:03;;;;;;;23.55;12.88;;;3.70;99.90;;;;;;5021348;28;20443;-89
2022/12/03 03:49:29;;;;;;;21.52;12.43;;;3.70;99.90;;;;;;5017415;28;20190;-88
2022/12/03 03:51:54;;;;;;;23.45;12.52;;;3.70;99.90;;;;;;5018354;28;20549;-88
2022/12/03 03:54:21;;;;;;;23.92;12.85;;;3.60;99.90;;;;;;5038086;28;20049;-88
2022/12/03 03:56:47;;;;;;;22.95;11.82;;;3.60;99.90;;;;;;5033883;28;20151;-87
2022/12/03 03:59:13;;;;;;;22.77;12.60;;;3.60;99.90;;;;;;5021894;28;20140;-88
2022/12/03 04:01:42;;;;;;;21.17;11.85;;;3.70;99.90;;;;;;5023881;28;20109;-87
2022/12/03 04:04:17;;;;;;;21.98;12.02;;;3.60;99.90;;;;;;5034193;28;20349;-88
2022/12/03 04:06:42;;;;;;;;;;;3.60;99.90;;;;;;5036685;28;20462;-89
2022/12/03 04:09:08;;;;;;;20.98;11.43;;;3.60;99.90;;;;;;5020061;28;19978;-87
2022/12/03 04:14:18;;;;;;;22.50;12.38;;;3.60;99.90;;;;;;5038229;28;20553;-87
2022/12/03 04:16:43;;;;;;;24.48;12.85;;;3.60;99.90;;;;;;5017867;28;20052;-87
2022/12/03 04:19:09;;;;;;;21.88;11.60;;;3.60;99.90;;;;;;5020424;28;20138;-88
2022/12/03 04:24:21;;;;;;;21.05;12.35;;;3.50;99.90;;;;;;5035371;28;20063;-88
2022/12/03 04:29:31;;;;;;;25.50;13.13;;;3.60;99.90;;;;;;5037956;28;20090;-88
2022/12/03 04:37:25;;;;;;;24.53;12.50;;;3.60;99.90;;;;;;5033542;28;20044;-89
2022/12/03 04:39:51;;;;;;;23.50;12.45;;;3.60;99.90;;;;;;5020342;28;20122;-87
2022/12/03 04:42:17;;;;;;;22.40;12.35;;;3.60;99.90;;;;;;5018605;28;20428;-87
2022/12/03 04:44:43;;;;;;;21.42;11.70;;;3.60;99.90;;;;;;5036931;28;20883;-88
2022/12/03 04:47:18;;;;;;;23.35;13.02;;;3.60;99.90;;;;;;5034557;28;20070;-88
2022/12/03 04:49:47;;;;;;;;;;;3.60;99.90;;;;;;5038776;28;20395;-89
2022/12/03 04:52:15;;;;;;;25.70;12.02;;;3.60;99.90;;;;;;5043317;28;19963;-88
2022/12/03 04:54:41;;;;;;;25.13;12.57;;;3.60;99.90;;;;;;5039346;28;20044;-87
2022/12/03 04:57:08;;;;;;;23.15;12.50;;;3.60;99.90;;;;;;5019691;28;20499;-88
2022/12/03 04:59:38;;;;;;;22.80;12.30;;;3.60;99.90;;;;;;5025406;28;20195;-88
2022/12/03 05:02:04;;;;;;;22.30;12.88;;;3.60;99.90;;;;;;5023488;28;20033;-88
2022/12/03 05:04:30;;;;;;;22.95;12.13;;;3.60;99.90;;;;;;5038344;28;20039;-87
2022/12/03 05:06:56;;;;;;;23.55;12.82;;;3.50;99.90;;;;;;5036457;28;20040;-87
2022/12/03 05:09:22;;;;;;;26.08;12.60;;;3.50;99.90;;;;;;5026917;28;20127;-88
2022/12/03 05:11:50;;;;;;;23.27;12.38;;;3.50;99.90;;;;;;5019350;28;20507;-88
2022/12/03 05:14:16;;;;;;;25.65;12.60;;;3.50;99.90;;;;;;5023715;28;20508;-88
2022/12/03 05:16:41;;;;;;;23.48;12.10;;;3.50;99.90;;;;;;5021798;28;20054;-88
2022/12/03 05:19:07;;;;;;;22.35;12.73;;;3.50;99.90;;;;;;5023502;28;20045;-89
2022/12/03 05:21:34;;;;;;;25.98;12.32;;;3.50;99.90;;;;;;5042338;28;20045;-88
2022/12/03 05:23:59;;;;;;;24.40;12.77;;;3.40;99.90;;;;;;5028842;28;20140;-88
2022/12/03 05:26:25;;;;;;;25.23;13.23;;;3.40;99.90;;;;;;5020996;28;20151;-87
2022/12/03 05:28:50;;;;;;;23.77;12.18;;;3.40;99.90;;;;;;5022901;28;20037;-88
2022/12/03 05:31:16;;;;;;;24.52;12.77;;;3.40;99.90;;;;;;5021831;28;20064;-88
2022/12/03 05:33:42;;;;;;;25.27;13.10;;;3.30;99.90;;;;;;5022227;28;20052;-88
2022/12/03 05:36:08;;;;;;;27.25;13.13;;;3.40;99.90;;;;;;5043374;28;20164;-88
2022/12/03 05:38:34;;;;;;;25.60;13.85;;;3.30;99.90;;;;;;5023007;28;20045;-89
2022/12/03 05:40:59;;;;;;;25.40;12.23;;;3.30;99.90;;;;;;5020758;28;20060;-88
2022/12/03 05:43:25;;;;;;;24.40;12.55;;;3.30;99.90;;;;;;5029642;28;20311;-88
2022/12/03 05:45:51;;;;;;;23.83;12.75;;;3.30;99.90;;;;;;5025214;28;20384;-87
2022/12/03 05:48:17;;;;;;;24.63;13.32;;;3.30;99.90;;;;;;5021960;28;20325;-89
2022/12/03 05:50:44;;;;;;;24.48;12.57;;;3.30;99.90;;;;;;5025506;28;20065;-87
2022/12/03 05:53:12;;;;;;;24.92;12.73;;;3.30;99.90;;;;;;5034108;28;20095;-89
2022/12/03 05:55:38;;;;;;;25.55;12.90;;;3.30;99.90;;;;;;5019774;28;20083;-88
2022/12/03 05:58:04;;;;;;;25.83;13.52;;;3.30;99.90;;;;;;5019122;28;20048;-88
2022/12/03 06:00:32;;;;;;;23.27;12.30;;;3.20;99.90;;;;;;5017177;28;20488;-88
2022/12/03 06:02:58;;;;;;;23.33;12.13;;;3.20;99.90;;;;;;5034954;28;20072;-88
2022/12/03 06:05:24;;;;;;;24.77;12.63;;;3.30;99.90;;;;;;5024139;28;20223;-88
2022/12/03 06:07:51;;;;;;;26.50;13.32;;;3.30;99.90;;;;;;5028240;28;20040;-88
2022/12/03 06:10:21;;;;;;;24.75;13.50;;;3.20;99.90;;;;;;5023551;28;20037;-87
2022/12/03 06:12:47;;;;;;;24.80;12.77;;;3.20;99.90;;;;;;5020259;28;20428;-88
2022/12/03 06:15:13;;;;;;;20.17;11.13;;;3.20;99.90;;;;;;5031287;28;20052;-89
2022/12/03 06:17:42;;;;;;;25.88;12.70;;;3.20;99.90;;;;;;5038583;28;20557;-88
2022/12/03 06:20:12;;;;;;;21.42;12.10;;;3.10;99.90;;;;;;5035506;28;20072;-87
2022/12/03 06:22:40;;;;;;;21.70;11.73;;;3.10;99.90;;;;;;5022384;28;20052;-87
2022/12/03 06:25:11;;;;;;;25.38;12.48;;;3.10;99.90;;;;;;5037812;28;20496;-88
2022/12/03 06:27:36;;;;;;;23.60;12.70;;;3.10;99.90;;;;;;5020873;28;20073;-88
2022/12/03 06:30:04;;;;;;;23.73;12.40;;;3.10;99.90;;;;;;5022692;28;20120;-87
2022/12/03 06:32:30;;;;;;;28.40;12.90;;;3.10;99.90;;;;;;5023859;28;20262;-88
2022/12/03 06:34:55;;;;;;;25.88;13.05;;;3.10;99.90;;;;;;5020372;28;20538;-87
2022/12/03 06:37:21;;;;;;;23.95;11.98;;;3.10;99.90;;;;;;5020747;28;20094;-89
2022/12/03 06:39:46;;;;;;;24.50;12.23;;;3.10;99.90;;;;;;5038036;28;20045;-88
2022/12/03 06:42:12;;;;;;;22.27;12.48;;;3.10;99.90;;;;;;5015737;28;20490;-88
2022/12/03 06:44:38;;;;;;;25.30;13.48;;;3.00;99.90;;;;;;5022326;28;20040;-88
2022/12/03 06:47:06;;;;;;;25.80;12.48;;;3.10;99.90;;;;;;5036201;28;20037;-89
2022/12/03 06:49:32;;;;;;;24.15;12.35;;;3.10;99.90;;;;;;5019731;28;20049;-87
2022/12/03 06:51:58;;;;;;;24.00;13.15;;;3.10;99.90;;;;;;5019091;28;20036;-89
2022/12/03 06:54:23;;;;;;;25.02;12.07;;;3.10;99.90;;;;;;5026914;28;20467;-88
2022/12/03 06:56:49;;;;;;;24.88;12.68;;;3.10;99.90;;;;;;5016841;28;20060;-89
2022/12/03 06:59:14;;;;;;;26.25;12.52;;;3.10;99.90;;;;;;5024993;28;20223;-88
2022/12/03 07:01:40;;;;;;;24.35;13.52;;;3.10;99.90;;;;;;5034711;28;20033;-88
2022/12/03 07:04:06;;;;;;;22.67;12.10;;;3.10;99.90;;;;;;5037746;28;20044;-89
2022/12/03 07:06:31;;;;;;;26.65;13.07;;;3.00;99.90;;;;;;5022985;28;20048;-89
2022/12/03 07:08:57;;;;;;;21.85;12.48;;;3.00;99.90;;;;;;5020004;28;20037;-89
2022/12/03 07:11:32;;;;;;;24.25;12.75;;;3.10;99.90;;;;;;5016544;28;20041;-88
2022/12/03 07:13:59;;;;;;;24.02;12.38;;;3.00;99.90;;;;;;5022577;28;20037;-86
2022/12/03 07:16:25;;;;;;;25.10;12.32;;;3.10;99.90;;;;;;5019377;28;20507;-88
2022/12/03 07:18:51;;;;;;;25.60;13.25;;;3.00;99.90;;;;;;5020001;28;20040;-87
2022/12/03 07:21:17;;;;;;;25.33;12.85;;;3.00;99.90;;;;;;5035264;28;20045;-88
2022/12/03 07:23:43;;;;;;;25.02;12.77;;;3.00;99.90;;;;;;5022363;28;20068;-88
2022/12/03 07:26:08;;;;;;;26.42;13.27;;;3.00;99.90;;;;;;5017899;28;20240;-88
2022/12/03 07:28:34;;;;;;;25.45;13.18;;;3.00;99.90;;;;;;5020555;28;20032;-88
2022/12/03 07:31:04;;;;;;;27.60;13.35;;;3.00;99.90;;;;;;5022569;28;20621;-88
2022/12/03 07:33:30;;;;;;;28.60;13.35;;;3.00;99.90;;;;;;5018887;28;20044;-88
2022/12/03 07:35:55;;;;;;;29.42;15.20;;;3.00;99.90;;;;;;5040159;28;20058;-88
2022/12/03 07:38:21;;;;;;;24.95;13.95;;;3.00;99.90;;;;;;5026716;28;20037;-88
2022/12/03 07:40:46;;;;;;;25.63;13.43;;;3.00;99.90;;;;;;5017891;28;20033;-88
2022/12/03 07:43:12;;;;;;;25.33;14.57;;;2.90;99.90;;;;;;5021380;28;20143;-88
2022/12/03 07:45:41;;;;;;;25.98;14.20;;;3.00;99.90;;;;;;5019475;28;20025;-89
2022/12/03 07:48:06;;;;;;;23.67;12.70;;;2.90;99.90;;;;;;5037197;28;20120;-90
2022/12/03 07:50:32;;;;;;;25.20;13.85;;;2.90;99.90;;;;;;5033638;28;20440;-89
2022/12/03 07:52:58;;;;;;;26.77;14.60;;;2.90;99.90;;;;;;5024969;28;20492;-88
2022/12/03 07:55:24;;;;;;;25.73;13.95;;;2.90;99.90;;;;;;5017898;28;20044;-88
2022/12/03 07:57:50;;;;;;;28.67;14.82;;;2.90;99.90;;;;;;5021458;28;20759;-88
2022/12/03 08:00:19;;;;;;;27.73;14.20;;;2.90;99.90;;;;;;5035108;28;20060;-88
2022/12/03 08:02:48;;;;;;;26.02;14.10;;;2.90;99.90;;;;;;5035437;28;20041;-88
2022/12/03 08:05:13;;;;;;;27.10;13.98;;;2.80;99.90;;;;;;5023700;28;20040;-88
2022/12/03 08:07:39;;;;;;;29.08;14.75;;;2.80;99.90;;;;;;5020451;28;20044;-88
2022/12/03 08:10:06;;;;;;;29.23;13.93;;;2.80;99.90;;;;;;5020063;28;20033;-89
2022/12/03 08:12:39;;;;;;;25.92;14.40;;;2.80;99.90;;;;;;5018482;28;20048;-88
2022/12/03 08:15:26;;;;;;;27.00;14.63;;;2.80;99.90;;;;;;5042387;28;20106;-88
2022/12/03 08:17:57;;;;;;;25.98;14.38;;;2.80;99.90;;;;;;5021599;28;20044;-88
2022/12/03 08:20:26;;;;;;;27.10;14.98;;;2.80;99.90;;;;;;5018722;28;20037;-89
2022/12/03 08:22:53;;;;;;;27.60;14.18;;;2.80;99.90;;;;;;5039241;28;20273;-88
2022/12/03 08:25:25;;;;;;;29.88;14.63;;;2.80;99.90;;;;;;5021875;28;20064;-89
2022/12/03 08:27:55;;;;;;;28.95;14.57;;;2.80;99.90;;;;;;5036582;28;20040;-88
2022/12/03 08:30:21;;;;;;;26.08;13.63;;;2.80;99.90;;;;;;5022634;28;20091;-88
2022/12/03 08:32:48;;;;;;;28.55;14.70;;;2.80;99.90;;;;;;5033975;28;20051;-87
2022/12/03 08:35:25;;;;;;;27.10;14.73;;;2.70;99.90;;;;;;5016982;28;20049;-88
2022/12/03 08:37:58;;;;;;;28.35;15.38;;;2.70;99.90;;;;;;5018997;28;20040;-87
2022/12/03 08:40:36;;;;;;;29.63;14.35;;;2.70;99.90;;;;;;5017405;28;20041;-89
2022/12/03 08:43:23;;;;;;;26.67;14.70;;;2.80;99.90;;;;;;5035440;28;20478;-89
2022/12/03 08:45:51;;;;;;;28.65;14.45;;;2.80;99.90;;;;;;5015349;28;20098;-88
2022/12/03 08:48:37;;;;;;;30.38;15.23;;;2.70;99.90;;;;;;5018778;28;20494;-89
2022/12/03 08:51:18;;;;;;;29.75;14.48;;;2.70;99.90;;;;;;5036540;28;20037;-88
2022/12/03 08:53:50;;;;;;;28.52;14.75;;;2.70;99.90;;;;;;5017804;28;20131;-88
2022/12/03 08:56:20;;;;;;;27.42;14.68;;;2.70;99.90;;;;;;5032346;28;20302;-88
2022/12/03 08:58:50;;;;;;;30.30;15.48;;;2.70;99.90;;;;;;5019010;28;20641;-89
2022/12/03 09:01:32;;;;;;;26.42;14.07;;;2.70;99.90;;;;;;5033736;28;20284;-87
2022/12/03 09:04:14;;;;;;;26.27;13.70;;;2.70;99.90;;;;;;5016209;28;20033;-88
2022/12/03 09:06:40;;;;;;;26.73;13.70;;;2.70;99.90;;;;;;5021720;28;20040;-89
2022/12/03 09:09:06;;;;;;;30.60;14.73;;;2.70;99.90;;;;;;5017608;28;20033;-87
2022/12/03 09:11:34;;;;;;;26.88;14.52;;;2.70;99.90;;;;;;5017518;28;20176;-89
2022/12/03 09:14:00;;;;;;;28.60;15.05;;;2.70;99.90;;;;;;5034762;28;20517;-88
2022/12/03 09:16:26;;;;;;;30.00;14.60;;;2.70;99.90;;;;;;5032838;28;20504;-87
2022/12/03 09:18:52;;;;;;;29.77;14.70;;;2.70;99.90;;;;;;5015491;28;20036;-87
2022/12/03 09:21:20;;;;;;;26.55;13.77;;;2.70;99.90;;;;;;5035968;28;20043;-88
2022/12/03 09:23:46;;;;;;;27.70;14.75;;;2.80;99.90;;;;;;5034539;28;20123;-87
2022/12/03 09:26:18;;;;;;;30.25;14.77;;;2.70;99.90;;;;;;5033124;28;20037;-88
2022/12/03 09:28:45;;;;;;;28.60;14.80;;;2.80;99.90;;;;;;5019953;28;20052;-89
2022/12/03 09:31:10;;;;;;;31.67;15.50;;;2.80;99.90;;;;;;5021523;28;20040;-88
2022/12/03 09:33:36;;;;;;;29.88;14.40;;;2.80;99.90;;;;;;5017708;28;20037;-89
2022/12/03 09:36:02;;;;;;;27.23;14.68;;;2.80;99.90;;;;;;5019008;28;20044;-88
2022/12/03 09:38:28;;;;;;;31.48;15.02;;;2.80;99.90;;;;;;5019983;28;20147;-88
2022/12/03 09:40:53;;;;;;;28.40;14.55;;;2.80;99.90;;;;;;5018562;28;20427;-88
2022/12/03 09:43:19;;;;;;;27.50;14.88;;;2.80;99.90;;;;;;5021067;28;20478;-88
2022/12/03 09:45:46;;;;;;;26.98;14.35;;;2.90;99.90;;;;;;5020051;28;20040;-89
2022/12/03 09:48:20;;;;;;;29.63;15.25;;;2.90;99.90;;;;;;5053041;28;20048;-88
2022/12/03 09:50:46;;;;;;;28.83;15.27;;;2.90;99.90;;;;;;5036555;28;20040;-89
2022/12/03 09:53:15;;;;;;;27.92;14.35;;;2.90;99.90;;;;;;5025772;28;20273;-86
2022/12/03 09:55:45;;;;;;;30.98;15.20;;;2.90;99.90;;;;;;5037661;28;20373;-87
2022/12/03 09:58:13;;;;;;;30.88;14.45;;;2.90;99.90;;;;;;5022965;28;20534;-88
2022/12/03 10:00:40;;;;;;;29.55;14.52;;;2.90;99.90;;;;;;5021293;28;20500;-88
2022/12/03 10:03:28;;;;;;;33.78;14.85;;;3.00;99.90;;;;;;5017459;28;20434;-88
2022/12/03 10:05:54;;;;;;;26.17;14.18;;;3.00;99.90;;;;;;5022350;28;20060;-88
2022/12/03 10:08:24;;;;;;;33.00;14.60;;;3.00;99.90;;;;;;5025014;28;20036;-89
2022/12/03 10:10:53;;;;;;;28.20;14.77;;;3.00;99.90;;;;;;5033057;28;20037;-88
2022/12/03 10:13:28;;;;;;;27.38;14.73;;;3.00;99.90;;;;;;5033859;28;20215;-89
2022/12/03 10:15:55;;;;;;;30.63;15.15;;;3.00;99.90;;;;;;5017547;28;20452;-88
2022/12/03 10:18:24;;;;;;;31.55;14.93;;;3.00;99.90;;;;;;5036079;28;20070;-88
2022/12/03 10:20:55;;;;;;;26.08;14.38;;;3.00;99.90;;;;;;5036482;28;20094;-89
2022/12/03 10:23:26;;;;;;;28.90;14.38;;;3.00;99.90;;;;;;5020470;28;20492;-88
2022/12/03 10:26:03;;;;;;;31.45;14.40;;;2.90;99.90;;;;;;5019925;28;20106;-88
2022/12/03 10:28:33;;;;;;;26.23;14.50;;;3.00;99.90;;;;;;5019758;28;20480;-88
2022/12/03 10:31:01;;;;;;;29.67;14.60;;;3.00;99.90;;;;;;5036211;28;20099;-89
2022/12/03 10:33:36;;;;;;;26.10;13.45;;;3.00;99.90;;;;;;5018478;28;20051;-89
2022/12/03 10:36:14;;;;;;;29.30;14.98;;;2.90;99.90;;;;;;5023184;28;20042;-88
2022/12/03 10:38:40;;;;;;;30.13;14.35;;;3.00;99.90;;;;;;5021982;28;20037;-88
2022/12/03 10:41:24;;;;;;;33.53;16.42;;;2.90;99.90;;;;;;5033495;28;20045;-88
2022/12/03 10:43:50;;;;;;;32.25;15.07;;;3.00;99.90;;;;;;5019824;28;20403;-88
2022/12/03 10:46:18;;;;;;;31.42;15.25;;;3.00;99.90;;;;;;5021042;28;20426;-88
2022/12/03 10:48:44;;;;;;;32.08;15.23;;;3.00;99.90;;;;;;5019934;28;20483;-88
2022/12/03 10:51:21;;;;;;;31.70;16.00;;;3.00;99.90;;;;;;5040196;28;20037;-88
2022/12/03 10:53:49;;;;;;;28.67;16.02;;;3.00;99.90;;;;;;5028528;28;20079;-89
2022/12/03 10:56:28;;;;;;;28.98;14.88;;;3.00;99.90;;;;;;5036324;28;20032;-88
2022/12/03 10:58:54;;;;;;;30.77;15.00;;;3.00;99.90;;;;;;5054601;28;20674;-88
2022/12/03 11:01:22;;;;;;;31.75;15.85;;;3.00;99.90;;;;;;5033319;28;20037;-88
2022/12/03 11:03:48;;;;;;;27.60;15.55;;;3.10;99.90;;;;;;5021180;28;20679;-89
2022/12/03 11:06:16;;;;;;;33.90;16.42;;;3.00;99.90;;;;;;5019762;28;20175;-88
2022/12/03 11:08:44;;;;;;;31.42;16.42;;;3.00;99.90;;;;;;5025774;28;20072;-88
2022/12/03 11:11:18;;;;;;;27.88;15.05;;;3.00;99.90;;;;;;5018593;28;20124;-88
2022/12/03 11:13:47;;;;;;;30.77;15.88;;;3.10;99.90;;;;;;5019516;28;20488;-88
2022/12/03 11:16:33;;;;;;;30.02;15.05;;;3.10;99.90;;;;;;5024150;28;20036;-88
2022/12/03 11:19:01;;;;;;;31.70;16.20;;;3.00;99.90;;;;;;5033769;28;20908;-88
2022/12/03 11:21:27;;;;;;;31.65;16.00;;;3.00;99.90;;;;;;5019900;28;20547;-89
2022/12/03 11:23:58;;;;;;;29.90;14.82;;;3.00;99.90;;;;;;5018324;28;20048;-88
2022/12/03 11:26:44;;;;;;;29.23;15.43;;;3.00;99.90;;;;;;5033164;28;20065;-89
2022/12/03 11:29:13;;;;;;;30.92;15.30;;;3.00;99.90;;;;;;5008940;28;20312;-88
2022/12/03 11:31:45;;;;;;;30.25;16.45;;;3.00;99.90;;;;;;5022496;28;20283;-88
2022/12/03 11:34:20;;;;;;;36.05;17.60;;;3.00;99.90;;;;;;5018230;28;21034;-88
2022/12/03 11:37:04;;;;;;;;;;;3.20;99.90;;;;;;5039530;28;20334;-88
2022/12/03 11:39:48;;;;;;;32.53;15.25;;;3.20;99.90;;;;;;5037941;28;19920;-88
2022/12/03 11:42:25;;;;;;;31.50;16.80;;;3.10;99.90;;;;;;5019678;28;20375;-89
2022/12/03 11:45:03;;;;;;;35.05;15.95;;;3.20;99.90;;;;;;5018670;28;20237;-89
2022/12/03 11:47:34;;;;;;;32.75;16.40;;;3.10;99.90;;;;;;5014033;28;20055;-89
2022/12/03 11:50:00;;;;;;;32.28;17.33;;;3.10;99.90;;;;;;5017880;28;20345;-88
2022/12/03 11:52:40;;;;;;;34.10;17.02;;;3.00;99.90;;;;;;5033211;28;20075;-88
2022/12/03 11:55:36;;;;;;;34.00;17.38;;;3.10;99.90;;;;;;5019665;28;20053;-88
2022/12/03 11:58:12;;;;;;;31.33;15.82;;;3.10;99.90;;;;;;5014821;28;20815;-89
2022/12/03 12:00:38;;;;;;;33.22;16.02;;;3.10;99.90;;;;;;5016566;28;20048;-89
2022/12/03 12:03:03;;;;;;;31.30;16.05;;;3.00;99.90;;;;;;5033118;28;20488;-88
2022/12/03 12:05:31;;;;;;;32.15;14.80;;;3.10;99.90;;;;;;5019151;28;20044;-89
2022/12/03 12:07:58;;;;;;;32.92;16.75;;;3.10;99.90;;;;;;5016742;28;20114;-88
2022/12/03 12:10:41;;;;;;;31.27;16.50;;;3.00;99.90;;;;;;5035023;28;20047;-89
2022/12/03 12:13:30;;;;;;;32.00;16.17;;;3.10;99.90;;;;;;5020270;28;20296;-89
2022/12/03 12:15:57;;;;;;;31.77;15.20;;;3.10;99.90;;;;;;5036505;28;20041;-89
2022/12/03 12:18:40;;;;;;;34.17;15.65;;;3.10;99.90;;;;;;5035988;28;20067;-88
2022/12/03 12:21:36;;;;;;;30.30;15.00;;;3.10;99.90;;;;;;5033913;28;20555;-88
2022/12/03 12:24:39;;;;;;;30.23;15.25;;;3.10;99.90;;;;;;5036779;28;20057;-89
2022/12/03 12:27:06;;;;;;;28.98;14.23;;;3.10;99.90;;;;;;5035391;28;20067;-88
2022/12/03 12:29:32;;;;;;;34.55;16.20;;;3.00;99.90;;;;;;5022766;28;20559;-88
2022/12/03 12:32:11;;;;;;;30.60;15.43;;;3.10;99.90;;;;;;5018361;28;20459;-89
2022/12/03 12:34:48;;;;;;;28.73;15.27;;;3.10;99.90;;;;;;5032484;28;20063;-89
2022/12/03 12:37:38;;;;;;;33.90;15.52;;;3.20;99.90;;;;;;5032972;28;20098;-87
2022/12/03 12:40:16;;;;;;;30.38;15.55;;;3.10;99.90;;;;;;5018316;28;20037;-89
2022/12/03 12:43:07;;;;;;;29.90;15.75;;;3.10;99.90;;;;;;5022373;28;20060;-88
2022/12/03 12:45:38;;;;;;;28.33;15.88;;;3.20;99.90;;;;;;5036626;28;20052;-88
2022/12/03 12:48:19;;;;;;;30.08;15.35;;;3.20;99.90;;;;;;5026814;28;20052;-87
2022/12/03 12:50:47;;;;;;;26.65;14.68;;;3.10;99.90;;;;;;5017624;28;20077;-88
2022/12/03 12:53:31;;;;;;;29.52;14.70;;;3.10;99.90;;;;;;5020003;28;20814;-88
2022/12/03 12:55:59;;;;;;;30.08;14.68;;;3.10;99.90;;;;;;5025045;28;20037;-88
2022/12/03 12:58:29;;;;;;;28.42;14.48;;;3.10;99.90;;;;;;5024295;28;20048;-88
2022/12/03 13:00:58;;;;;;;25.70;14.32;;;3.00;99.90;;;;;;5019206;28;20102;-88
2022/12/03 13:03:27;;;;;;;26.58;14.32;;;3.00;99.90;;;;;;5033444;28;20558;-88